Sawbridgeworth, United Kingdom
Current Conditions -  °F | °C
As of 5:20 AM on Saturday 25 Oct 2014 (Local Time) from EGSS Reporting Station
Moderate Fog Moderate Fog  
Wind Chill:   Ceiling: Unl
Heat Index:   Visibility: 0.37mi
Dew Point:   Wind: 7mph
Humidity: 100%   Direction: 230°SW
Pressure: 30"   Gusts: NA
Location:  51.8°N, 0.14°E
Report Text: EGSS 250420Z 23006KT 0600 R22/0350 FG NSC 05/05 Q1016
Loading
Personal Weather Stations






























Interactive Weather Map
Tropical Storm Tracking
New forecast layout! Learn more

10-Day Weather Forecast

Advertisements
Track Severe Weather on mobile